Airfield :
LOGIN :

Register | Disclaimer

   EN    FR    IT 

 










Legend :    VFR   Marginal VFR   IFR   Intensive IFR   Very Intensive IFR
Visi :
Ceiling :
>= 8 km
>= 3000ft
5 to 8 km
1000 to 3000 ft
1500m to 5 km
500 to 1000 ft
800 to 1500m
200 to 500 ft
< 800m
< 200 ft
Symbols :   Thunderstorms  Fog  Heavy snow  Heavy precipitations  Wind > 20 kt
SIGMETs :     Misc.  Thunderstorms  Icing  Turbulence  Mountain Waves  Volcanic Ashes







- Airport Elevation : 1708 ft
- IATA code : SJJ


LQSA - Sarajevo

EXPIRED METARs :
  • 241430Z 27003KT 190V330 9999 FEW050 31/15 Q1017 NOSIG
  • 241400Z VRB01KT 9999 FEW050 31/18 Q1017 NOSIG
  • 241330Z VRB02KT 9999 FEW050 30/15 Q1017 NOSIG
  • 241300Z 29003KT 240V360 9999 FEW050 29/17 Q1018 NOSIG
  • 241230Z VRB03KT 9999 FEW050 29/18 Q1018 NOSIG
  • 241200Z 24003KT 180V320 9999 FEW050 28/17 Q1018 NOSIG

Expired Forecast.
No reported NOTAMs for that airfield.



MET'MAP, your aeronautical weather chart ! - Copyright ORBIFLY December 2007 - Disclaimer

ORBIFLY MET'MAP TEAM :

Programming & Development : Alexandra Zaïnal
Concept & Development : Baudouin d'Aumeries
Co-Development & Prog : Marc-Olivier Méhu
Technical & hardware support : Manuel Goepfert

Contact : metmap@orbifly.com




SOURCES & CREDITS :

   NOAA